Time;durP1;ratioP1;P1;durP2;ratioP2;P2;SDS_P1;SDS_P2;PMS_P1;PMS_P2;Temp;Humidity;BMP_temperature;BMP_pressure;BME280_temperature;BME280_humidity;BME280_pressure;Samples;Min_cycle;Max_cycle;Signal;HPM_P1;HPM_P2
2022/02/12 00:00:24;;;;;;;6.67;5.20;;;;;;;;;;5058237;28;20490;-93
2022/02/12 00:02:52;;;;;;;10.30;5.40;;;;;;;;;;5052241;28;20459;-93
2022/02/12 00:05:21;;;;;;;17.63;7.43;;;;;;;;;;5055230;28;20493;-92
2022/02/12 00:07:48;;;;;;;10.53;6.50;;;;;;;;;;5059263;28;20460;-92
2022/02/12 00:10:15;;;;;;;7.37;5.63;;;;;;;;;;5058907;28;20457;-93
2022/02/12 00:12:42;;;;;;;8.97;5.03;;;;;;;;;;5059886;28;20939;-93
2022/02/12 00:15:10;;;;;;;10.60;5.30;;;;;;;;;;5058274;28;20452;-93
2022/02/12 00:17:37;;;;;;;11.20;5.77;;;;;;;;;;5055429;28;20455;-94
2022/02/12 00:20:05;;;;;;;20.43;9.57;;;-1.00;99.90;;;;;;5054413;28;20522;-94
2022/02/12 00:22:34;;;;;;;8.37;5.10;;;-1.10;99.90;;;;;;5054036;28;20482;-93
2022/02/12 00:25:01;;;;;;;10.90;6.33;;;;;;;;;;5055695;28;20453;-94
2022/02/12 00:27:28;;;;;;;16.70;8.23;;;;;;;;;;5055726;28;20461;-94
2022/02/12 00:29:55;;;;;;;36.07;11.13;;;;;;;;;;5054859;28;20452;-92
2022/02/12 00:32:22;;;;;;;24.50;9.27;;;;;;;;;;5076792;22;20496;-94
2022/02/12 00:34:49;;;;;;;33.47;10.00;;;;;;;;;;5074519;28;20832;-93
2022/02/12 00:37:17;;;;;;;38.87;10.53;;;;;;;;;;5074084;28;20509;-94
2022/02/12 00:39:45;;;;;;;28.63;10.40;;;-0.50;99.90;;;;;;5074380;28;20481;-92
2022/02/12 00:42:12;;;;;;;41.83;15.57;;;;;;;;;;5074471;28;20954;-92
2022/02/12 00:44:41;;;;;;;44.43;19.23;;;;;;;;;;5073340;28;20446;-92
2022/02/12 00:47:08;;;;;;;56.90;22.80;;;;;;;;;;5074783;28;20792;-94
2022/02/12 00:49:36;;;;;;;49.07;12.97;;;;;;;;;;5073379;28;20457;-92
2022/02/12 00:52:04;;;;;;;39.07;12.33;;;;;;;;;;5073516;28;20439;-93
2022/02/12 00:54:32;;;;;;;36.50;14.10;;;;;;;;;;5054118;28;20434;-95
2022/02/12 00:57:01;;;;;;;42.40;14.20;;;-0.40;99.90;;;;;;5054063;28;20449;-92
2022/02/12 00:59:34;;;;;;;57.60;13.90;;;-0.40;99.90;;;;;;5053977;28;20826;-94
2022/02/12 01:02:03;;;;;;;63.67;12.97;;;-0.40;99.90;;;;;;5053633;28;20458;-92
2022/02/12 01:04:30;;;;;;;45.97;14.27;;;;;;;;;;5051104;28;20434;-92
2022/02/12 01:06:58;;;;;;;40.00;16.00;;;;;;;;;;5054265;28;20442;-92
2022/02/12 01:09:28;;;;;;;23.27;13.03;;;-0.40;99.90;;;;;;5053989;28;20775;-92
2022/02/12 01:12:03;;;;;;;35.33;11.80;;;-0.50;99.90;;;;;;5053505;28;20451;-92
2022/02/12 01:14:31;;;;;;;29.73;11.93;;;;;;;;;;5052513;28;20453;-94
2022/02/12 01:16:58;;;;;;;19.57;10.80;;;;;;;;;;5057685;28;20453;-91
2022/02/12 01:19:27;;;;;;;25.47;10.50;;;;;;;;;;5056688;28;20483;-91
2022/02/12 01:21:54;;;;;;;31.93;10.43;;;;;;;;;;5057521;28;20444;-91
2022/02/12 01:24:21;;;;;;;15.47;9.77;;;;;;;;;;5057501;28;20440;-91
2022/02/12 01:26:51;;;;;;;24.57;9.67;;;;;;;;;;5056376;28;20955;-92
2022/02/12 01:29:20;;;;;;;18.30;9.77;;;;;;;;;;5057116;28;20454;-93
2022/02/12 01:31:47;;;;;;;16.00;9.70;;;;;;;;;;5056562;28;20493;-92
2022/02/12 01:34:14;;;;;;;14.47;8.53;;;;;;;;;;5055135;28;20464;-94
2022/02/12 01:36:41;;;;;;;20.20;9.40;;;;;;;;;;5056788;28;20907;-92
2022/02/12 01:39:08;;;;;;;13.20;8.70;;;;;;;;;;5055709;28;20452;-94
2022/02/12 01:41:35;;;;;;;13.20;8.60;;;;;;;;;;5057774;28;20512;-93
2022/02/12 01:44:10;;;;;;;15.23;8.87;;;-1.20;99.90;;;;;;5057399;28;20972;-92
2022/02/12 01:46:39;;;;;;;16.40;9.23;;;-1.10;99.90;;;;;;5057570;28;20442;-92
2022/02/12 01:49:06;;;;;;;12.47;8.00;;;;;;;;;;4976252;28;20482;-95
2022/02/12 01:51:33;;;;;;;16.33;9.17;;;;;;;;;;4976845;28;20450;-93
2022/02/12 01:54:00;;;;;;;18.17;9.20;;;;;;;;;;4974035;28;20476;-94
2022/02/12 01:56:28;;;;;;;17.03;10.20;;;-1.40;99.90;;;;;;4976658;28;20912;-93
2022/02/12 01:58:55;;;;;;;18.80;9.67;;;;;;;;;;4977055;28;20442;-93
2022/02/12 02:01:22;;;;;;;13.80;7.93;;;;;;;;;;4976854;28;20496;-93
2022/02/12 02:03:51;;;;;;;11.07;7.73;;;-1.50;99.90;;;;;;4976665;28;20461;-94
2022/02/12 02:06:18;;;;;;;11.07;7.80;;;;;;;;;;4979698;28;20435;-94
2022/02/12 02:08:45;;;;;;;12.00;7.30;;;;;;;;;;5060405;28;20469;-91
2022/02/12 02:11:15;;;;;;;15.13;7.97;;;;;;;;;;5076444;28;20443;-92
2022/02/12 02:13:42;;;;;;;13.40;7.80;;;;;;;;;;5062347;28;20459;-92
2022/02/12 02:16:12;;;;;;;13.73;8.00;;;-1.50;99.90;;;;;;5057332;28;20451;-92
2022/02/12 02:18:39;;;;;;;16.80;7.57;;;;;;;;;;5056341;28;20450;-91
2022/02/12 02:21:08;;;;;;;13.30;7.47;;;-1.50;99.90;;;;;;5054798;28;20483;-92
2022/02/12 02:23:39;;;;;;;12.63;7.60;;;-2.10;99.90;;;;;;5056487;28;20461;-92
2022/02/12 02:26:06;;;;;;;15.13;7.60;;;;;;;;;;5056581;28;20891;-92
2022/02/12 02:28:33;;;;;;;13.47;7.10;;;;;;;;;;5056746;28;20452;-92
2022/02/12 02:31:00;;;;;;;13.53;7.60;;;;;;;;;;5056623;28;20454;-91
2022/02/12 02:33:28;;;;;;;14.93;7.87;;;;;;;;;;5057045;28;20981;-92
2022/02/12 02:35:55;;;;;;;10.00;6.60;;;;;;;;;;5056258;28;20470;-93
2022/02/12 02:38:24;;;;;;;15.10;8.60;;;;;;;;;;5056799;28;20440;-93
2022/02/12 02:40:53;;;;;;;15.03;7.60;;;-1.70;99.90;;;;;;5056820;28;20510;-93
2022/02/12 02:43:21;;;;;;;17.60;8.00;;;;;;;;;;5056233;28;20449;-93
2022/02/12 02:45:48;;;;;;;10.10;7.37;;;;;;;;;;5056434;28;20445;-91
2022/02/12 02:48:15;;;;;;;12.30;8.13;;;;;;;;;;5056405;28;20446;-92
2022/02/12 02:56:13;;;;;;;15.20;7.40;;;;;;;;;;5055827;28;20934;-91
2022/02/12 02:58:42;;;;;;;16.07;7.90;;;-1.90;99.90;;;;;;5055756;28;20492;-92
2022/02/12 03:01:11;;;;;;;13.73;8.43;;;-1.90;99.90;;;;;;5055856;28;20488;-90
2022/02/12 03:03:39;;;;;;;11.27;8.07;;;-1.90;99.90;;;;;;5054343;28;20934;-91
2022/02/12 03:06:06;;;;;;;10.10;7.13;;;-2.00;99.90;;;;;;5055083;28;20464;-91
2022/02/12 03:08:34;;;;;;;12.60;7.80;;;;;;;;;;5056040;28;20449;-92
2022/02/12 03:11:01;;;;;;;11.97;6.97;;;;;;;;;;5053343;28;20518;-91
2022/02/12 03:13:30;;;;;;;14.93;7.33;;;;;;;;;;5055672;28;20932;-92
2022/02/12 03:15:57;;;;;;;18.50;8.50;;;;;;;;;;5055624;28;20435;-91
2022/02/12 03:18:25;;;;;;;14.80;7.33;;;;;;;;;;5055515;28;20453;-89
2022/02/12 03:20:52;;;;;;;11.00;7.57;;;;;;;;;;5054334;28;20510;-91
2022/02/12 03:23:19;;;;;;;15.07;9.07;;;;;;;;;;5055518;28;20457;-91
2022/02/12 03:25:46;;;;;;;19.57;8.20;;;;;;;;;;5056971;28;20455;-91
2022/02/12 03:28:14;;;;;;;11.23;8.27;;;;;;;;;;5062322;28;20445;-93
2022/02/12 03:30:45;;;;;;;10.50;6.80;;;-2.10;99.90;;;;;;5061982;28;20451;-92
2022/02/12 03:33:12;;;;;;;14.07;7.67;;;;;;;;;;5059442;28;20475;-92
2022/02/12 03:35:40;;;;;;;11.83;6.20;;;;;;;;;;5053340;28;20457;-93
2022/02/12 03:38:09;;;;;;;10.70;7.07;;;-2.20;99.90;;;;;;5055013;28;20432;-93
2022/02/12 03:40:38;;;;;;;11.60;6.77;;;-2.10;99.90;;;;;;5055676;28;20491;-92
2022/02/12 03:43:06;;;;;;;8.63;6.73;;;;;;;;;;5054860;28;20473;-92
2022/02/12 03:45:33;;;;;;;13.40;5.87;;;;;;;;;;5055448;28;20439;-91
2022/02/12 03:48:02;;;;;;;8.60;6.33;;;;;;;;;;5053798;28;20466;-90
2022/02/12 03:50:31;;;;;;;9.10;5.60;;;;;;;;;;5054914;28;20440;-91
2022/02/12 03:52:59;;;;;;;7.00;5.60;;;-2.20;99.90;;;;;;5052417;28;20998;-91
2022/02/12 03:55:26;;;;;;;11.53;6.60;;;;;;;;;;5047037;28;20470;-91
2022/02/12 03:57:53;;;;;;;6.97;5.77;;;;;;;;;;5055972;28;20438;-93
2022/02/12 04:00:20;;;;;;;11.00;6.17;;;;;;;;;;5055977;28;20540;-93
2022/02/12 04:02:48;;;;;;;7.27;5.10;;;-2.30;99.90;;;;;;5055261;28;20432;-92
2022/02/12 04:05:17;;;;;;;11.97;6.00;;;-2.30;99.90;;;;;;5051719;28;20448;-90
2022/02/12 04:07:44;;;;;;;14.13;6.87;;;;;;;;;;5054814;28;20790;-92
2022/02/12 04:10:15;;;;;;;8.83;5.90;;;-2.40;99.90;;;;;;5055224;28;20859;-92
2022/02/12 04:12:43;;;;;;;13.07;6.00;;;-2.30;99.90;;;;;;5054916;28;20451;-93
2022/02/12 04:15:11;;;;;;;14.00;6.23;;;;;;;;;;5054386;28;20447;-92
2022/02/12 04:17:38;;;;;;;12.03;6.50;;;;;;;;;;5054240;28;20509;-91
2022/02/12 04:20:07;;;;;;;8.53;6.40;;;-2.30;99.90;;;;;;5053896;28;20447;-92
2022/02/12 04:22:36;;;;;;;10.57;6.67;;;-2.50;99.90;;;;;;5051230;28;20449;-92
2022/02/12 04:25:07;;;;;;;8.37;5.30;;;-2.50;99.90;;;;;;5054539;28;20448;-90
2022/02/12 04:27:34;;;;;;;8.23;3.60;;;;;;;;;;5054624;28;20450;-92
2022/02/12 04:30:01;;;;;;;7.73;5.10;;;;;;;;;;5053303;28;20478;-92
2022/02/12 04:32:28;;;;;;;13.03;5.57;;;;;;;;;;5054644;28;20474;-92
2022/02/12 04:34:56;;;;;;;9.00;4.93;;;;;;;;;;5053257;28;20448;-92
2022/02/12 04:37:24;;;;;;;10.23;5.07;;;-2.50;99.90;;;;;;5054125;28;20454;-92
2022/02/12 04:39:52;;;;;;;16.63;6.03;;;;;;;;;;5054494;28;20435;-92
2022/02/12 04:42:20;;;;;;;9.10;5.87;;;;;;;;;;5054312;28;20483;-92
2022/02/12 04:44:48;;;;;;;14.50;6.77;;;-2.40;99.90;;;;;;5055536;28;20446;-91
2022/02/12 04:47:15;;;;;;;17.23;7.57;;;;;;;;;;5076088;28;20433;-91
2022/02/12 04:49:42;;;;;;;14.47;7.73;;;;;;;;;;5070602;28;20447;-93
2022/02/12 04:52:12;;;;;;;21.43;9.10;;;-2.50;99.90;;;;;;5058206;28;20464;-89
2022/02/12 04:54:39;;;;;;;16.50;8.87;;;;;;;;;;5057845;28;20465;-91
2022/02/12 04:57:08;;;;;;;17.37;7.60;;;;;;;;;;5057988;28;20456;-91
2022/02/12 04:59:36;;;;;;;17.60;8.90;;;-2.50;99.90;;;;;;5057859;28;20446;-90
2022/02/12 05:02:03;;;;;;;16.83;9.53;;;;;;;;;;5057821;28;21151;-90
2022/02/12 05:04:30;;;;;;;18.93;10.07;;;;;;;;;;5056196;28;20973;-91
2022/02/12 05:06:57;;;;;;;20.37;10.47;;;;;;;;;;5058216;28;20437;-92
2022/02/12 05:09:24;;;;;;;16.30;9.27;;;;;;;;;;5058418;28;20442;-89
2022/02/12 05:11:52;;;;;;;18.77;9.57;;;;;;;;;;5057782;28;20435;-91
2022/02/12 05:14:20;;;;;;;18.03;8.40;;;;;;;;;;5057691;28;20458;-94
2022/02/12 05:16:47;;;;;;;19.90;10.40;;;;;;;;;;5056825;28;20501;-91
2022/02/12 05:19:14;;;;;;;15.50;8.27;;;;;;;;;;5056992;28;20442;-89
2022/02/12 05:21:41;;;;;;;15.73;9.23;;;;;;;;;;5057815;28;20479;-91
2022/02/12 05:24:09;;;;;;;18.30;10.23;;;;;;;;;;5056142;28;20472;-90
2022/02/12 05:26:36;;;;;;;17.87;9.90;;;;;;;;;;5058438;28;20795;-91
2022/02/12 05:29:03;;;;;;;18.33;8.80;;;;;;;;;;5056039;28;20462;-92
2022/02/12 05:31:32;;;;;;;14.77;8.30;;;-2.50;99.90;;;;;;5057441;28;20501;-90
2022/02/12 05:33:59;;;;;;;14.43;9.17;;;;;;;;;;5057201;28;20452;-90
2022/02/12 05:36:26;;;;;;;20.17;9.90;;;;;;;;;;5057199;28;20450;-90
2022/02/12 05:38:53;;;;;;;18.20;8.60;;;;;;;;;;5057422;28;20443;-91
2022/02/12 05:41:20;;;;;;;13.73;8.67;;;;;;;;;;5057147;28;20474;-91
2022/02/12 05:43:47;;;;;;;14.23;8.37;;;;;;;;;;5057097;28;20454;-91
2022/02/12 05:46:14;;;;;;;16.73;7.60;;;;;;;;;;5055738;28;20471;-91
2022/02/12 05:48:43;;;;;;;17.80;8.60;;;;;;;;;;5056941;28;20474;-91
2022/02/12 05:51:10;;;;;;;14.47;8.10;;;;;;;;;;5056152;28;20472;-91
2022/02/12 05:53:39;;;;;;;12.70;8.23;;;;;;;;;;5056300;28;20789;-92
2022/02/12 05:56:06;;;;;;;15.80;8.17;;;;;;;;;;5056471;28;20460;-92
2022/02/12 05:58:33;;;;;;;19.47;7.67;;;;;;;;;;5057827;28;20459;-89
2022/02/12 06:01:00;;;;;;;11.67;7.33;;;;;;;;;;5062212;28;20496;-90
2022/02/12 06:03:27;;;;;;;15.33;8.90;;;;;;;;;;5063476;28;20461;-90
2022/02/12 06:05:56;;;;;;;15.20;8.40;;;;;;;;;;5060210;28;20441;-90
2022/02/12 06:08:23;;;;;;;11.03;7.00;;;;;;;;;;5055407;28;20822;-90
2022/02/12 06:10:50;;;;;;;10.70;7.40;;;;;;;;;;5056833;28;20463;-90
2022/02/12 06:13:17;;;;;;;13.20;7.73;;;;;;;;;;5056490;28;20441;-90
2022/02/12 06:15:46;;;;;;;14.90;7.10;;;-2.80;99.90;;;;;;5055532;28;20439;-91
2022/02/12 06:18:13;;;;;;;14.47;7.33;;;;;;;;;;5056901;28;20451;-91
2022/02/12 06:20:40;;;;;;;15.60;9.00;;;;;;;;;;5055987;28;20441;-92
2022/02/12 06:23:09;;;;;;;16.43;8.40;;;-3.00;99.90;;;;;;5056204;28;20485;-90
2022/02/12 06:25:36;;;;;;;11.43;7.40;;;;;;;;;;5053932;28;20462;-93
2022/02/12 06:28:04;;;;;;;21.10;7.67;;;;;;;;;;5056262;28;20939;-89
2022/02/12 06:30:32;;;;;;;14.90;8.07;;;;;;;;;;5054917;28;20469;-89
2022/02/12 06:32:59;;;;;;;14.60;7.57;;;;;;;;;;5055669;28;20486;-91
2022/02/12 06:35:27;;;;;;;12.80;8.10;;;;;;;;;;5055572;28;20835;-91
2022/02/12 06:37:55;;;;;;;13.67;6.80;;;-2.90;99.90;;;;;;5054598;28;20487;-90
2022/02/12 06:40:24;;;;;;;13.77;6.87;;;;;;;;;;5056305;28;20448;-92
2022/02/12 06:42:51;;;;;;;11.47;7.10;;;;;;;;;;5056059;28;20487;-91
2022/02/12 06:45:18;;;;;;;12.07;6.70;;;;;;;;;;5055555;28;20947;-91
2022/02/12 06:47:45;;;;;;;14.00;7.47;;;;;;;;;;5055060;28;20805;-91
2022/02/12 06:50:12;;;;;;;17.50;6.73;;;;;;;;;;5055063;28;20463;-92
2022/02/12 06:52:40;;;;;;;16.00;6.70;;;;;;;;;;5055670;28;20440;-90
2022/02/12 06:55:08;;;;;;;11.70;7.63;;;;;;;;;;5055791;28;20516;-93
2022/02/12 06:57:36;;;;;;;13.10;7.53;;;;;;;;;;5055316;28;20435;-92
2022/02/12 07:00:05;;;;;;;14.03;8.33;;;-2.80;99.90;;;;;;5055377;28;20441;-93
2022/02/12 07:02:33;;;;;;;13.37;7.00;;;;;;;;;;5055652;28;20486;-92
2022/02/12 07:05:00;;;;;;;10.00;6.53;;;;;;;;;;5054092;28;20492;-91
2022/02/12 07:07:28;;;;;;;14.00;6.57;;;;;;;;;;5061370;28;20554;-90
2022/02/12 07:09:55;;;;;;;17.13;7.90;;;;;;;;;;5060876;28;20495;-91
2022/02/12 07:12:22;;;;;;;13.43;6.97;;;;;;;;;;5055110;28;20465;-93
2022/02/12 07:14:51;;;;;;;11.93;6.93;;;-2.70;99.90;;;;;;5057745;28;20441;-92
2022/02/12 07:17:18;;;;;;;12.10;7.33;;;;;;;;;;5063081;28;20447;-92
2022/02/12 07:19:45;;;;;;;10.60;6.70;;;;;;;;;;5056049;28;20492;-93
2022/02/12 07:22:12;;;;;;;16.17;8.00;;;;;;;;;;5056250;28;20482;-92
2022/02/12 07:24:39;;;;;;;16.77;7.03;;;;;;;;;;5057077;28;20460;-89
2022/02/12 07:27:06;;;;;;;8.93;7.27;;;;;;;;;;5055358;28;20448;-92
2022/02/12 07:29:34;;;;;;;15.27;7.27;;;;;;;;;;5053323;28;20460;-92
2022/02/12 07:32:02;;;;;;;10.37;6.40;;;-2.20;99.90;;;;;;5055256;28;20996;-92
2022/02/12 07:34:29;;;;;;;17.87;8.13;;;;;;;;;;5054900;28;20431;-93
2022/02/12 07:36:56;;;;;;;14.43;7.73;;;;;;;;;;5054835;28;20454;-91
2022/02/12 07:39:23;;;;;;;13.60;7.63;;;;;;;;;;5054390;28;20447;-92
2022/02/12 07:41:50;;;;;;;14.37;7.80;;;;;;;;;;5054713;28;20485;-91
2022/02/12 07:44:17;;;;;;;21.50;11.43;;;;;;;;;;5054631;28;20463;-93
2022/02/12 07:46:44;;;;;;;16.93;9.87;;;;;;;;;;5054614;28;20446;-91
2022/02/12 07:49:12;;;;;;;16.27;9.60;;;0.00;99.90;;;;;;5053492;28;20443;-91
2022/02/12 07:51:39;;;;;;;15.93;8.43;;;;;;;;;;5054012;28;20479;-91
2022/02/12 07:54:06;;;;;;;12.97;8.00;;;;;;;;;;5054309;28;20448;-91
2022/02/12 07:56:34;;;;;;;13.20;8.33;;;;;;;;;;5054583;28;20851;-93
2022/02/12 07:59:01;;;;;;;11.50;7.73;;;;;;;;;;5054588;28;20445;-91
2022/02/12 08:01:30;;;;;;;19.60;13.60;;;;;;;;;;5054124;28;20860;-92
2022/02/12 08:03:59;;;;;;;14.30;7.57;;;;;;;;;;5053439;28;20442;-90
2022/02/12 08:09:12;;;;;;;9.27;6.50;;;;;;;;;;5054352;28;20918;-91
2022/02/12 08:11:43;;;;;;;8.97;5.60;;;;;;;;;;5053175;28;20481;-86
2022/02/12 08:14:10;;;;;;;16.53;8.30;;;;;;;;;;5053284;28;20451;-88
2022/02/12 08:16:40;;;;;;;8.27;5.80;;;3.80;99.90;;;;;;5050928;28;20447;-88
2022/02/12 08:19:07;;;;;;;10.90;6.70;;;;;;;;;;5051717;28;20450;-87
2022/02/12 08:21:35;;;;;;;9.87;5.73;;;;;;;;;;5052536;28;20531;-88
2022/02/12 08:24:02;;;;;;;13.93;7.57;;;;;;;;;;5054378;28;20442;-93
2022/02/12 08:26:30;;;;;;;10.50;6.20;;;;;;;;;;5057798;28;20608;-92
2022/02/12 08:28:57;;;;;;;9.73;5.43;;;;;;;;;;5058723;28;20798;-92
2022/02/12 08:31:24;;;;;;;11.97;4.80;;;;;;;;;;5056734;28;20477;-91
2022/02/12 08:33:51;;;;;;;7.50;5.03;;;;;;;;;;5058488;28;20925;-92
2022/02/12 08:36:18;;;;;;;9.10;5.53;;;;;;;;;;5058061;28;20792;-89
2022/02/12 08:38:47;;;;;;;10.23;5.60;;;;;;;;;;5058209;28;20456;-93
2022/02/12 08:41:14;;;;;;;8.90;5.70;;;;;;;;;;5058378;28;20434;-89
2022/02/12 08:43:41;;;;;;;7.90;5.17;;;;;;;;;;5058335;28;20961;-93
2022/02/12 08:46:08;;;;;;;8.67;5.43;;;;;;;;;;5056658;28;20450;-94
2022/02/12 08:48:35;;;;;;;13.10;5.10;;;;;;;;;;5056531;28;20454;-92
2022/02/12 08:51:03;;;;;;;8.27;4.87;;;;;;;;;;5057492;28;20446;-93
2022/02/12 08:53:31;;;;;;;9.73;5.17;;;;;;;;;;5057316;28;21007;-92
2022/02/12 08:56:02;;;;;;;10.43;5.30;;;;;;;;;;5058178;28;20801;-93
2022/02/12 08:58:29;;;;;;;11.43;5.07;;;;;;;;;;5058514;28;20451;-94
2022/02/12 09:00:56;;;;;;;6.03;4.60;;;;;;;;;;5058401;28;20447;-92
2022/02/12 09:03:23;;;;;;;11.33;4.87;;;;;;;;;;5056754;28;20847;-93
2022/02/12 09:05:50;;;;;;;9.60;5.47;;;;;;;;;;5058057;28;20442;-92
2022/02/12 09:08:17;;;;;;;7.53;5.90;;;;;;;;;;5056866;28;20458;-89
2022/02/12 09:10:45;;;;;;;10.03;4.97;;;;;;;;;;5056919;28;20458;-90
2022/02/12 09:13:13;;;;;;;13.97;5.57;;;7.00;99.90;;;;;;5056505;28;20474;-91
2022/02/12 09:15:40;;;;;;;6.30;4.20;;;;;;;;;;5056983;28;20450;-89
2022/02/12 09:18:07;;;;;;;16.00;5.70;;;;;;;;;;5056733;28;20913;-90
2022/02/12 09:20:34;;;;;;;10.87;5.17;;;;;;;;;;5056677;28;20446;-90
2022/02/12 09:23:02;;;;;;;8.10;4.97;;;;;;;;;;5056603;28;20490;-90
2022/02/12 09:25:29;;;;;;;9.60;6.93;;;;;;;;;;5057177;28;20450;-90
2022/02/12 09:27:56;;;;;;;13.27;5.80;;;;;;;;;;5055418;28;20950;-90
2022/02/12 09:30:24;;;;;;;7.30;4.60;;;;;;;;;;5057277;28;20454;-91
2022/02/12 09:32:53;;;;;;;8.27;6.20;;;;;;;;;;5056536;28;20486;-92
2022/02/12 09:35:20;;;;;;;11.60;5.17;;;;;;;;;;5055456;28;20496;-91
2022/02/12 09:37:47;;;;;;;10.60;4.27;;;;;;;;;;5055041;28;20451;-92
2022/02/12 09:40:14;;;;;;;7.90;4.30;;;;;;;;;;5057339;28;20446;-93
2022/02/12 09:42:42;;;;;;;6.63;4.77;;;;;;;;;;5054898;28;20997;-91
2022/02/12 09:45:10;;;;;;;12.67;4.93;;;8.20;99.90;;;;;;5056182;28;20847;-92
2022/02/12 09:47:56;;;;;;;9.67;4.13;;;8.50;98.60;;;;;;5055929;28;20458;-92
2022/02/12 09:50:24;;;;;;;8.70;5.00;;;8.60;98.80;;;;;;5054033;28;20454;-93
2022/02/12 09:52:52;;;;;;;10.10;5.43;;;8.40;98.70;;;;;;5051824;28;20449;-94
2022/02/12 09:55:20;;;;;;;12.07;6.93;;;;;;;;;;5054209;28;20455;-92
2022/02/12 09:57:47;;;;;;;13.23;7.90;;;;;;;;;;5056563;28;20450;-94
2022/02/12 10:00:17;;;;;;;11.90;7.63;;;8.30;98.30;;;;;;5056733;28;20446;-92
2022/02/12 10:02:46;;;;;;;11.37;6.93;;;;;;;;;;5055750;28;20808;-90
2022/02/12 10:05:26;;;;;;;10.53;6.00;;;;;;;;;;5055730;28;20911;-90
2022/02/12 10:08:09;;;;;;;12.07;7.77;;;9.40;98.60;;;;;;5057708;28;20450;-94
2022/02/12 10:10:37;;;;;;;8.00;5.13;;;9.50;98.40;;;;;;5054480;28;20516;-93
2022/02/12 10:13:14;;;;;;;7.90;5.50;;;9.60;96.50;;;;;;5052612;28;20446;-92
2022/02/12 10:15:42;;;;;;;8.20;5.30;;;9.40;96.10;;;;;;5050106;28;20434;-92
2022/02/12 10:18:09;;;;;;;12.67;5.37;;;;;;;;;;5056797;28;20459;-90
2022/02/12 10:20:40;;;;;;;8.17;5.37;;;9.30;97.70;;;;;;5055085;28;20949;-92
2022/02/12 10:23:09;;;;;;;9.27;4.50;;;9.20;96.50;;;;;;5056171;28;20474;-92
2022/02/12 10:25:37;;;;;;;7.80;5.27;;;;;;;;;;5057724;28;20431;-94
2022/02/12 10:28:05;;;;;;;9.17;5.03;;;;;;;;;;5066186;28;20455;-95
2022/02/12 10:30:34;;;;;;;9.50;5.40;;;;;;;;;;5064723;28;20945;-93
2022/02/12 10:33:10;;;;;;;10.17;5.00;;;8.50;98.90;;;;;;5064370;28;20478;-93
2022/02/12 10:35:41;;;;;;;6.40;4.10;;;;;;;;;;5062509;28;20464;-93
2022/02/12 10:38:10;;;;;;;9.17;4.23;;;;;;;;;;5058062;28;20454;-93
2022/02/12 10:40:41;;;;;;;10.90;4.80;;;9.40;95.60;;;;;;5058182;28;20431;-95
2022/02/12 10:43:08;;;;;;;5.40;4.00;;;;;;;;;;5059118;28;20493;-93
2022/02/12 10:45:36;;;;;;;9.20;4.67;;;;;;;;;;5057940;28;20439;-92
2022/02/12 10:48:03;;;;;;;11.20;4.57;;;;;;;;;;5059078;28;20461;-92
2022/02/12 10:50:33;;;;;;;9.50;4.80;;;9.60;95.00;;;;;;5057340;28;20451;-93
2022/02/12 10:53:03;;;;;;;6.07;3.90;;;8.70;96.50;;;;;;5058478;28;20458;-92
2022/02/12 10:55:34;;;;;;;8.07;5.20;;;9.60;95.60;;;;;;5058298;28;20435;-93
2022/02/12 10:58:07;;;;;;;10.97;5.20;;;9.80;94.90;;;;;;5060780;28;20451;-92
2022/02/12 11:00:36;;;;;;;7.30;4.60;;;10.10;92.90;;;;;;5024298;28;20463;-93
2022/02/12 11:03:08;;;;;;;8.90;4.60;;;;;;;;;;5054347;28;20474;-95
2022/02/12 11:05:37;;;;;;;6.83;4.73;;;;;;;;;;5063375;28;20537;-94
2022/02/12 11:08:07;;;;;;;12.00;5.43;;;9.90;93.70;;;;;;5058273;28;20451;-92
2022/02/12 11:10:34;;;;;;;9.53;5.77;;;;;;;;;;5052632;28;20960;-93
2022/02/12 11:13:06;;;;;;;8.00;5.10;;;;;;;;;;5059265;28;20446;-94
2022/02/12 11:15:33;;;;;;;7.60;5.40;;;;;;;;;;5058006;28;20458;-95
2022/02/12 11:18:01;;;;;;;23.83;16.77;;;;;;;;;;5062623;28;20455;-92
2022/02/12 11:20:29;;;;;;;13.50;8.07;;;;;;;;;;5058241;28;20486;-94
2022/02/12 11:23:11;;;;;;;10.77;7.60;;;;;;;;;;5056301;28;20505;-94
2022/02/12 11:25:40;;;;;;;10.07;6.20;;;;;;;;;;5056209;28;21025;-92
2022/02/12 11:28:09;;;;;;;5.90;4.97;;;9.90;94.00;;;;;;5057177;28;20451;-93
2022/02/12 11:30:38;;;;;;;10.03;5.40;;;;;;;;;;5058137;28;20442;-91
2022/02/12 11:33:17;;;;;;;8.57;5.70;;;9.40;94.90;;;;;;5057558;28;20477;-91
2022/02/12 11:35:44;;;;;;;6.87;4.77;;;;;;;;;;5059122;28;20449;-92
2022/02/12 11:38:33;;;;;;;8.23;4.43;;;9.80;92.80;;;;;;5058424;28;20872;-92
2022/02/12 11:41:22;;;;;;;8.07;4.70;;;9.80;93.10;;;;;;5060146;28;20431;-95
2022/02/12 11:43:49;;;;;;;8.30;5.47;;;;;;;;;;5054875;28;20501;-92
2022/02/12 11:46:17;;;;;;;7.73;4.30;;;;;;;;;;5057726;28;20458;-92
2022/02/12 11:48:46;;;;;;;7.67;5.00;;;;;;;;;;5058875;28;20457;-94
2022/02/12 11:51:14;;;;;;;11.53;5.03;;;;;;;;;;5059117;28;20455;-95
2022/02/12 11:53:45;;;;;;;6.93;4.70;;;;;;;;;;5060623;28;20435;-93
2022/02/12 11:56:51;;;;;;;9.43;4.40;;;10.00;92.00;;;;;;5059105;28;20934;-93
2022/02/12 11:59:22;;;;;;;8.90;4.43;;;;;;;;;;5057286;28;20458;-91
2022/02/12 12:01:52;;;;;;;7.37;4.40;;;9.80;93.00;;;;;;5057345;28;20443;-91
2022/02/12 12:04:31;;;;;;;7.10;4.97;;;10.10;92.60;;;;;;5053515;28;20498;-91
2022/02/12 12:07:13;;;;;;;8.07;4.90;;;10.10;92.20;;;;;;5059732;28;20461;-93
2022/02/12 12:10:09;;;;;;;7.13;4.53;;;10.00;91.60;;;;;;5056187;28;20953;-92
2022/02/12 12:12:36;;;;;;;5.53;4.13;;;;;;;;;;5058768;28;20984;-91
2022/02/12 12:15:20;;;;;;;8.23;5.00;;;9.80;92.50;;;;;;5059658;28;20964;-91
2022/02/12 12:17:58;;;;;;;12.00;5.47;;;10.20;91.80;;;;;;5064444;28;20473;-91
2022/02/12 12:20:36;;;;;;;9.30;4.43;;;10.20;92.20;;;;;;5060676;28;20450;-91
2022/02/12 12:23:05;;;;;;;8.60;5.43;;;10.20;92.90;;;;;;5064055;28;20851;-92
2022/02/12 12:25:54;;;;;;;10.30;4.50;;;10.90;91.60;;;;;;5059905;28;20442;-92
2022/02/12 12:28:26;;;;;;;7.33;4.10;;;10.70;90.30;;;;;;5059849;28;20506;-90
2022/02/12 12:30:54;;;;;;;5.63;3.47;;;;;;;;;;5053473;28;20459;-92
2022/02/12 12:33:21;;;;;;;11.07;3.93;;;;;;;;;;5061527;28;21032;-92
2022/02/12 12:35:52;;;;;;;2.70;2.30;;;;;;;;;;5063760;28;20817;-91
2022/02/12 12:38:19;;;;;;;4.77;2.90;;;;;;;;;;5061100;28;20446;-91
2022/02/12 12:40:50;;;;;;;3.50;2.23;;;;;;;;;;5029158;28;20996;-90
2022/02/12 12:43:28;;;;;;;4.60;2.27;;;9.90;85.50;;;;;;5060573;28;20489;-93
2022/02/12 12:45:58;;;;;;;2.60;1.97;;;;;;;;;;4998500;28;20481;-90
2022/02/12 12:48:34;;;;;;;2.63;2.00;;;9.60;87.20;;;;;;4995905;28;20473;-93
2022/02/12 12:51:01;;;;;;;1.60;1.40;;;;;;;;;;4996730;28;20506;-94
2022/02/12 12:53:30;;;;;;;5.70;1.87;;;;;;;;;;5002820;28;20465;-93
2022/02/12 12:55:59;;;;;;;4.60;2.10;;;;;;;;;;4998679;28;20469;-94
2022/02/12 12:58:26;;;;;;;4.77;2.10;;;;;;;;;;4997978;28;20493;-94
2022/02/12 13:01:08;;;;;;;4.03;2.20;;;10.20;80.40;;;;;;4996331;28;20453;-91
2022/02/12 13:03:46;;;;;;;2.50;1.63;;;;;;;;;;5010620;28;20478;-93
2022/02/12 13:06:14;;;;;;;1.33;1.23;;;;;;;;;;5058354;28;20466;-94
2022/02/12 13:08:42;;;;;;;2.77;1.90;;;;;;;;;;5058554;28;20462;-88
2022/02/12 13:11:10;;;;;;;1.70;1.27;;;;;;;;;;5055867;28;20439;-91
2022/02/12 13:13:37;;;;;;;2.90;1.43;;;;;;;;;;5058100;28;20458;-90
2022/02/12 13:16:09;;;;;;;3.50;1.60;;;8.60;80.30;;;;;;5063384;28;20454;-92
2022/02/12 13:23:49;;;;;;;5.00;1.70;;;;;;;;;;5204283;22;20482;-90
2022/02/12 13:26:21;;;;;;;2.53;1.60;;;;;;;;;;5036305;28;20463;-91
2022/02/12 13:28:51;;;;;;;4.23;1.77;;;;;;;;;;5040331;28;20507;-93
2022/02/12 13:31:22;;;;;;;4.10;2.20;;;10.20;75.40;;;;;;5041822;28;20443;-90
2022/02/12 13:33:59;;;;;;;3.23;1.80;;;;;;;;;;5053490;28;20454;-93
2022/02/12 13:36:30;;;;;;;3.20;1.80;;;10.20;77.10;;;;;;5048900;28;20460;-90
2022/02/12 13:39:06;;;;;;;4.93;2.43;;;9.70;77.90;;;;;;5060182;22;20475;-92
2022/02/12 13:41:39;;;;;;;5.90;3.60;;;10.00;77.20;;;;;;5050107;28;20439;-93
2022/02/12 13:44:08;;;;;;;3.97;2.20;;;;;;;;;;5052201;28;20487;-90
2022/02/12 13:47:04;;;;;;;2.73;2.40;;;10.50;75.30;;;;;;5060872;22;20486;-92
2022/02/12 13:49:40;;;;;;;2.90;2.00;;;10.00;75.30;;;;;;5055453;22;20562;-91
2022/02/12 13:52:08;;;;;;;3.80;2.50;;;;;;;;;;5046288;28;20451;-93
2022/02/12 13:54:36;;;;;;;6.63;2.37;;;;;;;;;;5050098;28;20451;-91
2022/02/12 13:57:13;;;;;;;2.90;2.40;;;10.00;77.40;;;;;;5050919;28;20452;-92
2022/02/12 13:59:43;;;;;;;6.13;2.80;;;9.60;78.40;;;;;;5049235;28;20439;-94
2022/02/12 14:04:53;;;;;;;4.53;2.07;;;;;;;;;;5057357;22;20505;-91
2022/02/12 14:07:20;;;;;;;4.03;2.63;;;;;;;;;;5046514;28;20443;-92
2022/02/12 14:09:48;;;;;;;4.23;2.73;;;;;;;;;;5045133;28;20451;-93
2022/02/12 14:12:27;;;;;;;4.83;2.70;;;;;;;;;;5052895;28;20438;-91
2022/02/12 14:14:55;;;;;;;4.67;3.20;;;;;;;;;;5063586;22;20526;-93
2022/02/12 14:17:26;;;;;;;6.10;2.97;;;;;;;;;;5050633;28;20574;-95
2022/02/12 14:20:00;;;;;;;5.40;2.87;;;9.40;81.70;;;;;;5061561;22;20479;-92
2022/02/12 14:22:28;;;;;;;3.63;3.03;;;;;;;;;;5050949;28;20458;-93
2022/02/12 14:25:03;;;;;;;6.07;3.00;;;;;;;;;;5050904;28;20997;-93
2022/02/12 14:27:31;;;;;;;3.83;3.20;;;;;;;;;;5050247;28;21026;-94